sensor_id;sensor_type;location;lat;lon;timestamp;P1;durP1;ratioP1;P2;durP2;ratioP2
20090;SDS011;10205;49.678;6.560;2023-11-21T00:01:31;3.03;;;1.13;;
20090;SDS011;10205;49.678;6.560;2023-11-21T00:04:00;1.35;;;0.90;;
20090;SDS011;10205;49.678;6.560;2023-11-21T00:06:27;1.27;;;1.00;;
20090;SDS011;10205;49.678;6.560;2023-11-21T00:08:55;1.00;;;1.00;;
20090;SDS011;10205;49.678;6.560;2023-11-21T00:11:22;0.90;;;0.90;;
20090;SDS011;10205;49.678;6.560;2023-11-21T00:13:50;1.10;;;1.00;;
20090;SDS011;10205;49.678;6.560;2023-11-21T00:16:17;1.10;;;0.93;;
20090;SDS011;10205;49.678;6.560;2023-11-21T00:18:44;1.52;;;1.10;;
20090;SDS011;10205;49.678;6.560;2023-11-21T00:21:13;1.73;;;1.10;;
20090;SDS011;10205;49.678;6.560;2023-11-21T00:23:40;1.23;;;1.00;;
20090;SDS011;10205;49.678;6.560;2023-11-21T00:26:07;1.77;;;1.07;;
20090;SDS011;10205;49.678;6.560;2023-11-21T00:28:35;1.20;;;0.95;;
20090;SDS011;10205;49.678;6.560;2023-11-21T00:31:02;1.23;;;1.10;;
20090;SDS011;10205;49.678;6.560;2023-11-21T00:33:29;1.40;;;1.10;;
20090;SDS011;10205;49.678;6.560;2023-11-21T00:35:56;11.55;;;1.50;;
20090;SDS011;10205;49.678;6.560;2023-11-21T00:38:25;2.20;;;1.30;;
20090;SDS011;10205;49.678;6.560;2023-11-21T00:40:52;1.25;;;1.00;;
20090;SDS011;10205;49.678;6.560;2023-11-21T00:43:21;1.40;;;1.20;;
20090;SDS011;10205;49.678;6.560;2023-11-21T00:45:48;1.60;;;1.50;;
20090;SDS011;10205;49.678;6.560;2023-11-21T00:48:16;1.00;;;1.00;;
20090;SDS011;10205;49.678;6.560;2023-11-21T00:50:44;1.20;;;1.10;;
20090;SDS011;10205;49.678;6.560;2023-11-21T00:53:11;1.33;;;1.20;;
20090;SDS011;10205;49.678;6.560;2023-11-21T00:55:39;1.58;;;1.48;;
20090;SDS011;10205;49.678;6.560;2023-11-21T00:58:06;1.47;;;1.37;;
20090;SDS011;10205;49.678;6.560;2023-11-21T01:00:34;1.30;;;1.20;;
20090;SDS011;10205;49.678;6.560;2023-11-21T01:03:04;2.40;;;1.25;;
20090;SDS011;10205;49.678;6.560;2023-11-21T01:05:32;1.50;;;1.35;;
20090;SDS011;10205;49.678;6.560;2023-11-21T01:08:00;2.15;;;1.50;;
20090;SDS011;10205;49.678;6.560;2023-11-21T01:10:27;1.60;;;1.50;;
20090;SDS011;10205;49.678;6.560;2023-11-21T01:12:56;1.65;;;1.38;;
20090;SDS011;10205;49.678;6.560;2023-11-21T01:15:23;1.52;;;1.42;;
20090;SDS011;10205;49.678;6.560;2023-11-21T01:17:51;1.45;;;1.35;;
20090;SDS011;10205;49.678;6.560;2023-11-21T01:20:18;1.60;;;1.50;;
20090;SDS011;10205;49.678;6.560;2023-11-21T01:22:45;3.03;;;1.83;;
20090;SDS011;10205;49.678;6.560;2023-11-21T01:25:14;1.63;;;1.52;;
20090;SDS011;10205;49.678;6.560;2023-11-21T01:27:41;1.85;;;1.75;;
20090;SDS011;10205;49.678;6.560;2023-11-21T01:30:10;1.42;;;1.33;;
20090;SDS011;10205;49.678;6.560;2023-11-21T01:32:37;1.40;;;1.30;;
20090;SDS011;10205;49.678;6.560;2023-11-21T01:35:07;2.47;;;1.52;;
20090;SDS011;10205;49.678;6.560;2023-11-21T01:37:35;1.65;;;1.55;;
20090;SDS011;10205;49.678;6.560;2023-11-21T01:40:02;1.40;;;1.30;;
20090;SDS011;10205;49.678;6.560;2023-11-21T01:42:34;1.23;;;1.13;;
20090;SDS011;10205;49.678;6.560;2023-11-21T01:45:01;1.88;;;1.50;;
20090;SDS011;10205;49.678;6.560;2023-11-21T01:47:31;1.60;;;1.50;;
20090;SDS011;10205;49.678;6.560;2023-11-21T01:50:01;2.28;;;1.50;;
20090;SDS011;10205;49.678;6.560;2023-11-21T01:52:29;1.80;;;1.50;;
20090;SDS011;10205;49.678;6.560;2023-11-21T01:54:57;1.40;;;1.27;;
20090;SDS011;10205;49.678;6.560;2023-11-21T01:57:26;1.40;;;1.30;;
20090;SDS011;10205;49.678;6.560;2023-11-21T01:59:55;1.55;;;1.40;;
20090;SDS011;10205;49.678;6.560;2023-11-21T02:02:29;1.60;;;1.50;;
20090;SDS011;10205;49.678;6.560;2023-11-21T02:04:57;1.43;;;1.33;;
20090;SDS011;10205;49.678;6.560;2023-11-21T02:07:25;1.67;;;1.58;;
20090;SDS011;10205;49.678;6.560;2023-11-21T02:09:52;1.40;;;1.30;;
20090;SDS011;10205;49.678;6.560;2023-11-21T02:12:19;1.48;;;1.38;;
20090;SDS011;10205;49.678;6.560;2023-11-21T02:14:47;1.35;;;1.25;;
20090;SDS011;10205;49.678;6.560;2023-11-21T02:17:14;1.40;;;1.30;;
20090;SDS011;10205;49.678;6.560;2023-11-21T02:19:42;1.60;;;1.50;;
20090;SDS011;10205;49.678;6.560;2023-11-21T02:22:09;1.90;;;1.67;;
20090;SDS011;10205;49.678;6.560;2023-11-21T02:24:40;1.50;;;1.40;;
20090;SDS011;10205;49.678;6.560;2023-11-21T02:27:08;2.50;;;1.35;;
20090;SDS011;10205;49.678;6.560;2023-11-21T02:29:37;1.45;;;1.35;;
20090;SDS011;10205;49.678;6.560;2023-11-21T02:32:04;1.30;;;1.20;;
20090;SDS011;10205;49.678;6.560;2023-11-21T02:34:32;1.40;;;1.30;;
20090;SDS011;10205;49.678;6.560;2023-11-21T02:36:59;2.00;;;1.80;;
20090;SDS011;10205;49.678;6.560;2023-11-21T02:39:26;1.50;;;1.40;;
20090;SDS011;10205;49.678;6.560;2023-11-21T02:41:54;1.23;;;1.13;;
20090;SDS011;10205;49.678;6.560;2023-11-21T02:44:21;1.63;;;1.30;;
20090;SDS011;10205;49.678;6.560;2023-11-21T02:46:49;1.90;;;1.70;;
20090;SDS011;10205;49.678;6.560;2023-11-21T02:49:16;1.40;;;1.30;;
20090;SDS011;10205;49.678;6.560;2023-11-21T02:51:43;1.50;;;1.40;;
20090;SDS011;10205;49.678;6.560;2023-11-21T02:54:10;1.43;;;1.33;;
20090;SDS011;10205;49.678;6.560;2023-11-21T02:56:38;1.50;;;1.40;;
20090;SDS011;10205;49.678;6.560;2023-11-21T02:59:07;1.45;;;1.35;;
20090;SDS011;10205;49.678;6.560;2023-11-21T03:01:34;1.30;;;1.20;;
20090;SDS011;10205;49.678;6.560;2023-11-21T03:04:01;1.50;;;1.40;;
20090;SDS011;10205;49.678;6.560;2023-11-21T03:06:28;1.92;;;1.30;;
20090;SDS011;10205;49.678;6.560;2023-11-21T03:08:55;1.75;;;1.35;;
20090;SDS011;10205;49.678;6.560;2023-11-21T03:11:22;1.67;;;1.38;;
20090;SDS011;10205;49.678;6.560;2023-11-21T03:13:49;1.45;;;1.35;;
20090;SDS011;10205;49.678;6.560;2023-11-21T03:16:18;1.40;;;1.30;;
20090;SDS011;10205;49.678;6.560;2023-11-21T03:18:45;1.58;;;1.42;;
20090;SDS011;10205;49.678;6.560;2023-11-21T03:21:12;1.83;;;1.50;;
20090;SDS011;10205;49.678;6.560;2023-11-21T03:23:39;1.45;;;1.35;;
20090;SDS011;10205;49.678;6.560;2023-11-21T03:26:06;1.67;;;1.27;;
20090;SDS011;10205;49.678;6.560;2023-11-21T03:28:39;1.27;;;1.17;;
20090;SDS011;10205;49.678;6.560;2023-11-21T03:31:06;1.30;;;1.20;;
20090;SDS011;10205;49.678;6.560;2023-11-21T03:33:35;1.40;;;1.30;;
20090;SDS011;10205;49.678;6.560;2023-11-21T03:36:02;1.35;;;1.25;;
20090;SDS011;10205;49.678;6.560;2023-11-21T03:38:30;1.52;;;1.42;;
20090;SDS011;10205;49.678;6.560;2023-11-21T03:40:57;1.40;;;1.30;;
20090;SDS011;10205;49.678;6.560;2023-11-21T03:43:24;1.40;;;1.30;;
20090;SDS011;10205;49.678;6.560;2023-11-21T03:45:51;1.52;;;1.30;;
20090;SDS011;10205;49.678;6.560;2023-11-21T03:48:19;1.27;;;1.17;;
20090;SDS011;10205;49.678;6.560;2023-11-21T03:50:47;1.17;;;1.10;;
20090;SDS011;10205;49.678;6.560;2023-11-21T03:53:14;1.48;;;1.38;;
20090;SDS011;10205;49.678;6.560;2023-11-21T03:55:41;1.33;;;1.23;;
20090;SDS011;10205;49.678;6.560;2023-11-21T03:58:08;1.40;;;1.30;;
20090;SDS011;10205;49.678;6.560;2023-11-21T04:00:35;1.27;;;1.17;;
20090;SDS011;10205;49.678;6.560;2023-11-21T04:03:02;1.38;;;1.25;;
20090;SDS011;10205;49.678;6.560;2023-11-21T04:05:30;1.38;;;1.27;;
20090;SDS011;10205;49.678;6.560;2023-11-21T04:07:58;1.20;;;1.10;;
20090;SDS011;10205;49.678;6.560;2023-11-21T04:10:26;1.67;;;1.50;;
20090;SDS011;10205;49.678;6.560;2023-11-21T04:12:53;1.83;;;1.30;;
20090;SDS011;10205;49.678;6.560;2023-11-21T04:15:21;1.40;;;1.30;;
20090;SDS011;10205;49.678;6.560;2023-11-21T04:17:48;1.60;;;1.02;;
20090;SDS011;10205;49.678;6.560;2023-11-21T04:20:15;1.50;;;1.40;;
20090;SDS011;10205;49.678;6.560;2023-11-21T04:22:43;1.50;;;1.40;;
20090;SDS011;10205;49.678;6.560;2023-11-21T04:25:13;1.25;;;1.15;;
20090;SDS011;10205;49.678;6.560;2023-11-21T04:27:41;1.40;;;1.25;;
20090;SDS011;10205;49.678;6.560;2023-11-21T04:30:10;1.48;;;1.38;;
20090;SDS011;10205;49.678;6.560;2023-11-21T04:32:41;1.42;;;1.30;;
20090;SDS011;10205;49.678;6.560;2023-11-21T04:35:08;1.40;;;1.30;;
20090;SDS011;10205;49.678;6.560;2023-11-21T04:37:36;1.52;;;1.40;;
20090;SDS011;10205;49.678;6.560;2023-11-21T04:40:03;1.40;;;1.30;;
20090;SDS011;10205;49.678;6.560;2023-11-21T04:42:34;1.30;;;1.20;;
20090;SDS011;10205;49.678;6.560;2023-11-21T04:45:02;1.30;;;1.20;;
20090;SDS011;10205;49.678;6.560;2023-11-21T04:47:34;1.47;;;1.30;;
20090;SDS011;10205;49.678;6.560;2023-11-21T04:50:01;1.33;;;1.23;;
20090;SDS011;10205;49.678;6.560;2023-11-21T04:52:29;1.50;;;1.40;;
20090;SDS011;10205;49.678;6.560;2023-11-21T04:54:57;1.73;;;1.40;;
20090;SDS011;10205;49.678;6.560;2023-11-21T04:57:26;1.50;;;1.40;;
20090;SDS011;10205;49.678;6.560;2023-11-21T04:59:54;1.47;;;1.37;;
20090;SDS011;10205;49.678;6.560;2023-11-21T05:02:22;1.65;;;1.55;;
20090;SDS011;10205;49.678;6.560;2023-11-21T05:04:49;1.40;;;1.30;;
20090;SDS011;10205;49.678;6.560;2023-11-21T05:07:16;1.40;;;1.30;;
20090;SDS011;10205;49.678;6.560;2023-11-21T05:09:43;1.30;;;1.20;;
20090;SDS011;10205;49.678;6.560;2023-11-21T05:12:11;1.52;;;1.42;;
20090;SDS011;10205;49.678;6.560;2023-11-21T05:14:39;1.30;;;1.20;;
20090;SDS011;10205;49.678;6.560;2023-11-21T05:17:08;1.40;;;1.30;;
20090;SDS011;10205;49.678;6.560;2023-11-21T05:19:35;1.38;;;1.27;;
20090;SDS011;10205;49.678;6.560;2023-11-21T05:22:02;0.95;;;0.93;;
20090;SDS011;10205;49.678;6.560;2023-11-21T05:24:30;1.30;;;1.20;;
20090;SDS011;10205;49.678;6.560;2023-11-21T05:26:57;1.27;;;1.17;;
20090;SDS011;10205;49.678;6.560;2023-11-21T05:29:24;1.30;;;1.20;;
20090;SDS011;10205;49.678;6.560;2023-11-21T05:31:52;1.70;;;1.60;;
20090;SDS011;10205;49.678;6.560;2023-11-21T05:34:20;2.30;;;1.10;;
20090;SDS011;10205;49.678;6.560;2023-11-21T05:36:49;1.40;;;1.30;;
20090;SDS011;10205;49.678;6.560;2023-11-21T05:39:16;1.77;;;1.40;;
20090;SDS011;10205;49.678;6.560;2023-11-21T05:41:44;1.60;;;1.20;;
20090;SDS011;10205;49.678;6.560;2023-11-21T05:44:11;1.20;;;1.10;;
20090;SDS011;10205;49.678;6.560;2023-11-21T05:46:39;1.45;;;1.35;;
20090;SDS011;10205;49.678;6.560;2023-11-21T05:49:08;1.33;;;1.23;;
20090;SDS011;10205;49.678;6.560;2023-11-21T05:51:37;2.40;;;1.45;;
20090;SDS011;10205;49.678;6.560;2023-11-21T05:54:04;3.53;;;1.67;;
20090;SDS011;10205;49.678;6.560;2023-11-21T05:56:31;2.13;;;1.93;;
20090;SDS011;10205;49.678;6.560;2023-11-21T05:58:58;2.00;;;1.77;;
20090;SDS011;10205;49.678;6.560;2023-11-21T06:01:25;2.95;;;2.20;;
20090;SDS011;10205;49.678;6.560;2023-11-21T06:03:53;2.22;;;2.03;;
20090;SDS011;10205;49.678;6.560;2023-11-21T06:06:21;1.85;;;1.55;;
20090;SDS011;10205;49.678;6.560;2023-11-21T06:08:51;5.53;;;1.88;;
20090;SDS011;10205;49.678;6.560;2023-11-21T06:11:18;3.05;;;2.20;;
20090;SDS011;10205;49.678;6.560;2023-11-21T06:13:45;1.75;;;1.45;;
20090;SDS011;10205;49.678;6.560;2023-11-21T06:16:13;1.85;;;1.60;;
20090;SDS011;10205;49.678;6.560;2023-11-21T06:18:42;1.77;;;1.40;;
20090;SDS011;10205;49.678;6.560;2023-11-21T06:21:09;2.20;;;1.80;;
20090;SDS011;10205;49.678;6.560;2023-11-21T06:23:37;2.03;;;1.65;;
20090;SDS011;10205;49.678;6.560;2023-11-21T06:26:05;2.03;;;1.77;;
20090;SDS011;10205;49.678;6.560;2023-11-21T06:28:34;1.95;;;1.75;;
20090;SDS011;10205;49.678;6.560;2023-11-21T06:31:02;1.90;;;1.73;;
20090;SDS011;10205;49.678;6.560;2023-11-21T06:33:30;1.92;;;1.45;;
20090;SDS011;10205;49.678;6.560;2023-11-21T06:35:57;1.65;;;1.55;;
20090;SDS011;10205;49.678;6.560;2023-11-21T06:38:25;3.33;;;1.73;;
20090;SDS011;10205;49.678;6.560;2023-11-21T06:40:54;1.50;;;1.40;;
20090;SDS011;10205;49.678;6.560;2023-11-21T06:43:23;2.97;;;1.52;;
20090;SDS011;10205;49.678;6.560;2023-11-21T06:45:51;1.70;;;1.60;;
20090;SDS011;10205;49.678;6.560;2023-11-21T06:48:19;1.75;;;1.65;;
20090;SDS011;10205;49.678;6.560;2023-11-21T06:50:47;1.90;;;1.60;;
20090;SDS011;10205;49.678;6.560;2023-11-21T06:53:14;2.00;;;1.83;;
20090;SDS011;10205;49.678;6.560;2023-11-21T06:55:41;1.95;;;1.58;;
20090;SDS011;10205;49.678;6.560;2023-11-21T06:58:08;1.65;;;1.55;;
20090;SDS011;10205;49.678;6.560;2023-11-21T07:00:37;1.70;;;1.60;;
20090;SDS011;10205;49.678;6.560;2023-11-21T07:03:04;1.60;;;1.50;;
20090;SDS011;10205;49.678;6.560;2023-11-21T07:05:31;1.60;;;1.50;;
20090;SDS011;10205;49.678;6.560;2023-11-21T07:07:58;1.85;;;1.65;;
20090;SDS011;10205;49.678;6.560;2023-11-21T07:10:29;1.65;;;1.30;;
20090;SDS011;10205;49.678;6.560;2023-11-21T07:12:56;2.45;;;1.70;;
20090;SDS011;10205;49.678;6.560;2023-11-21T07:15:23;2.55;;;1.58;;
20090;SDS011;10205;49.678;6.560;2023-11-21T07:17:53;1.65;;;1.55;;
20090;SDS011;10205;49.678;6.560;2023-11-21T07:20:20;1.58;;;1.48;;
20090;SDS011;10205;49.678;6.560;2023-11-21T07:22:47;1.77;;;1.50;;
20090;SDS011;10205;49.678;6.560;2023-11-21T07:25:14;2.70;;;1.33;;
20090;SDS011;10205;49.678;6.560;2023-11-21T07:27:41;1.65;;;1.55;;
20090;SDS011;10205;49.678;6.560;2023-11-21T07:30:09;1.50;;;1.40;;
20090;SDS011;10205;49.678;6.560;2023-11-21T07:32:38;2.53;;;1.63;;
20090;SDS011;10205;49.678;6.560;2023-11-21T07:35:08;1.98;;;1.77;;
20090;SDS011;10205;49.678;6.560;2023-11-21T07:37:35;2.92;;;1.75;;
20090;SDS011;10205;49.678;6.560;2023-11-21T07:40:02;3.45;;;1.95;;
20090;SDS011;10205;49.678;6.560;2023-11-21T07:42:36;2.60;;;2.17;;
20090;SDS011;10205;49.678;6.560;2023-11-21T07:45:04;2.25;;;1.98;;
20090;SDS011;10205;49.678;6.560;2023-11-21T07:47:33;3.03;;;2.28;;
20090;SDS011;10205;49.678;6.560;2023-11-21T07:50:00;2.97;;;2.17;;
20090;SDS011;10205;49.678;6.560;2023-11-21T07:52:30;3.92;;;2.20;;
20090;SDS011;10205;49.678;6.560;2023-11-21T07:54:57;2.40;;;2.05;;
20090;SDS011;10205;49.678;6.560;2023-11-21T07:57:24;2.38;;;1.90;;
20090;SDS011;10205;49.678;6.560;2023-11-21T07:59:52;2.30;;;2.10;;
20090;SDS011;10205;49.678;6.560;2023-11-21T08:02:20;2.58;;;2.10;;
20090;SDS011;10205;49.678;6.560;2023-11-21T08:04:47;3.35;;;1.98;;
20090;SDS011;10205;49.678;6.560;2023-11-21T08:07:15;2.80;;;1.92;;
20090;SDS011;10205;49.678;6.560;2023-11-21T08:09:45;3.47;;;2.45;;
20090;SDS011;10205;49.678;6.560;2023-11-21T08:12:14;2.72;;;2.15;;
20090;SDS011;10205;49.678;6.560;2023-11-21T08:14:41;2.20;;;1.95;;
20090;SDS011;10205;49.678;6.560;2023-11-21T08:17:09;2.65;;;1.77;;
20090;SDS011;10205;49.678;6.560;2023-11-21T08:19:36;3.05;;;2.10;;
20090;SDS011;10205;49.678;6.560;2023-11-21T08:22:03;2.38;;;2.05;;
20090;SDS011;10205;49.678;6.560;2023-11-21T08:24:33;2.25;;;2.05;;
20090;SDS011;10205;49.678;6.560;2023-11-21T08:27:01;2.22;;;1.75;;
20090;SDS011;10205;49.678;6.560;2023-11-21T08:29:30;4.07;;;1.98;;
20090;SDS011;10205;49.678;6.560;2023-11-21T08:31:58;3.00;;;2.20;;
20090;SDS011;10205;49.678;6.560;2023-11-21T08:34:25;4.38;;;2.35;;
20090;SDS011;10205;49.678;6.560;2023-11-21T08:36:53;2.50;;;2.30;;
20090;SDS011;10205;49.678;6.560;2023-11-21T08:39:22;5.68;;;2.20;;
20090;SDS011;10205;49.678;6.560;2023-11-21T08:41:49;2.30;;;1.75;;
20090;SDS011;10205;49.678;6.560;2023-11-21T08:44:18;2.55;;;2.33;;
20090;SDS011;10205;49.678;6.560;2023-11-21T08:46:45;3.05;;;2.03;;
20090;SDS011;10205;49.678;6.560;2023-11-21T08:49:12;2.85;;;2.20;;
20090;SDS011;10205;49.678;6.560;2023-11-21T08:51:40;3.25;;;1.90;;
20090;SDS011;10205;49.678;6.560;2023-11-21T08:54:07;2.78;;;2.17;;
20090;SDS011;10205;49.678;6.560;2023-11-21T08:56:34;2.47;;;2.15;;
20090;SDS011;10205;49.678;6.560;2023-11-21T08:59:01;4.07;;;2.28;;
20090;SDS011;10205;49.678;6.560;2023-11-21T09:01:30;5.00;;;2.50;;
20090;SDS011;10205;49.678;6.560;2023-11-21T09:03:58;4.00;;;2.53;;
20090;SDS011;10205;49.678;6.560;2023-11-21T09:06:26;3.92;;;2.63;;
20090;SDS011;10205;49.678;6.560;2023-11-21T09:08:53;3.95;;;2.83;;
20090;SDS011;10205;49.678;6.560;2023-11-21T09:11:20;3.67;;;2.60;;
20090;SDS011;10205;49.678;6.560;2023-11-21T09:13:52;5.07;;;2.60;;
20090;SDS011;10205;49.678;6.560;2023-11-21T09:16:19;4.40;;;2.90;;
20090;SDS011;10205;49.678;6.560;2023-11-21T09:18:48;5.30;;;2.92;;
20090;SDS011;10205;49.678;6.560;2023-11-21T09:21:15;3.20;;;2.72;;
20090;SDS011;10205;49.678;6.560;2023-11-21T09:23:43;4.00;;;3.10;;
20090;SDS011;10205;49.678;6.560;2023-11-21T09:26:11;3.65;;;2.67;;
20090;SDS011;10205;49.678;6.560;2023-11-21T09:28:38;3.63;;;2.92;;
20090;SDS011;10205;49.678;6.560;2023-11-21T09:31:07;2.97;;;2.50;;
20090;SDS011;10205;49.678;6.560;2023-11-21T09:33:35;5.20;;;3.25;;
20090;SDS011;10205;49.678;6.560;2023-11-21T09:36:05;4.57;;;3.13;;
20090;SDS011;10205;49.678;6.560;2023-11-21T09:38:38;3.78;;;2.75;;
20090;SDS011;10205;49.678;6.560;2023-11-21T09:41:08;3.75;;;2.67;;
20090;SDS011;10205;49.678;6.560;2023-11-21T09:43:44;3.17;;;2.88;;
20090;SDS011;10205;49.678;6.560;2023-11-21T09:46:18;3.88;;;2.90;;
20090;SDS011;10205;49.678;6.560;2023-11-21T09:48:50;3.72;;;2.92;;
20090;SDS011;10205;49.678;6.560;2023-11-21T09:51:20;3.93;;;3.27;;
20090;SDS011;10205;49.678;6.560;2023-11-21T09:53:52;5.37;;;3.50;;
20090;SDS011;10205;49.678;6.560;2023-11-21T09:56:19;5.22;;;3.72;;
20090;SDS011;10205;49.678;6.560;2023-11-21T09:58:50;6.03;;;3.50;;
20090;SDS011;10205;49.678;6.560;2023-11-21T10:01:19;4.27;;;3.30;;
20090;SDS011;10205;49.678;6.560;2023-11-21T10:03:47;4.70;;;3.28;;
20090;SDS011;10205;49.678;6.560;2023-11-21T10:06:16;4.33;;;3.50;;
20090;SDS011;10205;49.678;6.560;2023-11-21T10:08:45;5.63;;;3.70;;
20090;SDS011;10205;49.678;6.560;2023-11-21T10:11:15;5.80;;;3.97;;
20090;SDS011;10205;49.678;6.560;2023-11-21T10:13:47;6.25;;;4.07;;
20090;SDS011;10205;49.678;6.560;2023-11-21T10:16:19;4.82;;;3.80;;
20090;SDS011;10205;49.678;6.560;2023-11-21T10:18:49;4.35;;;3.42;;
20090;SDS011;10205;49.678;6.560;2023-11-21T10:21:20;5.50;;;3.88;;
20090;SDS011;10205;49.678;6.560;2023-11-21T10:23:50;6.30;;;3.58;;
20090;SDS011;10205;49.678;6.560;2023-11-21T10:26:19;6.07;;;3.80;;
20090;SDS011;10205;49.678;6.560;2023-11-21T10:28:55;6.00;;;3.90;;
20090;SDS011;10205;49.678;6.560;2023-11-21T10:31:23;4.37;;;3.73;;
20090;SDS011;10205;49.678;6.560;2023-11-21T10:33:53;5.38;;;4.00;;
20090;SDS011;10205;49.678;6.560;2023-11-21T10:36:24;5.10;;;4.00;;
20090;SDS011;10205;49.678;6.560;2023-11-21T10:38:55;5.30;;;3.90;;
20090;SDS011;10205;49.678;6.560;2023-11-21T10:41:23;4.80;;;3.92;;
20090;SDS011;10205;49.678;6.560;2023-11-21T10:43:52;8.10;;;3.70;;
20090;SDS011;10205;49.678;6.560;2023-11-21T10:46:21;5.33;;;4.10;;
20090;SDS011;10205;49.678;6.560;2023-11-21T10:48:52;5.25;;;3.50;;
20090;SDS011;10205;49.678;6.560;2023-11-21T10:51:21;5.00;;;3.83;;
20090;SDS011;10205;49.678;6.560;2023-11-21T10:53:49;5.57;;;4.07;;
20090;SDS011;10205;49.678;6.560;2023-11-21T10:56:19;6.13;;;3.83;;
20090;SDS011;10205;49.678;6.560;2023-11-21T10:58:49;6.05;;;3.90;;
20090;SDS011;10205;49.678;6.560;2023-11-21T11:01:17;5.13;;;4.35;;
20090;SDS011;10205;49.678;6.560;2023-11-21T11:03:46;4.18;;;3.60;;
20090;SDS011;10205;49.678;6.560;2023-11-21T11:06:14;6.10;;;4.00;;
20090;SDS011;10205;49.678;6.560;2023-11-21T11:08:42;4.38;;;3.40;;
20090;SDS011;10205;49.678;6.560;2023-11-21T11:11:11;6.20;;;3.92;;
20090;SDS011;10205;49.678;6.560;2023-11-21T11:13:40;5.93;;;3.90;;
20090;SDS011;10205;49.678;6.560;2023-11-21T11:16:11;5.93;;;3.95;;
20090;SDS011;10205;49.678;6.560;2023-11-21T11:18:42;5.00;;;4.05;;
20090;SDS011;10205;49.678;6.560;2023-11-21T11:21:15;7.55;;;3.97;;
20090;SDS011;10205;49.678;6.560;2023-11-21T11:24:05;6.55;;;3.85;;
20090;SDS011;10205;49.678;6.560;2023-11-21T11:26:56;6.65;;;4.50;;
20090;SDS011;10205;49.678;6.560;2023-11-21T11:29:43;7.10;;;3.97;;
20090;SDS011;10205;49.678;6.560;2023-11-21T11:32:25;6.28;;;4.57;;
20090;SDS011;10205;49.678;6.560;2023-11-21T11:35:10;4.78;;;3.88;;
20090;SDS011;10205;49.678;6.560;2023-11-21T11:37:47;6.68;;;4.07;;
20090;SDS011;10205;49.678;6.560;2023-11-21T11:40:14;6.43;;;4.22;;
20090;SDS011;10205;49.678;6.560;2023-11-21T11:42:55;5.47;;;4.00;;
20090;SDS011;10205;49.678;6.560;2023-11-21T11:45:25;5.57;;;4.20;;
20090;SDS011;10205;49.678;6.560;2023-11-21T11:48:00;4.38;;;3.78;;
20090;SDS011;10205;49.678;6.560;2023-11-21T11:50:29;5.53;;;4.38;;
20090;SDS011;10205;49.678;6.560;2023-11-21T11:53:12;5.40;;;3.92;;
20090;SDS011;10205;49.678;6.560;2023-11-21T11:55:40;5.03;;;3.72;;
20090;SDS011;10205;49.678;6.560;2023-11-21T11:58:08;7.18;;;3.50;;
20090;SDS011;10205;49.678;6.560;2023-11-21T12:00:36;4.43;;;3.85;;
20090;SDS011;10205;49.678;6.560;2023-11-21T12:03:05;6.38;;;4.07;;
20090;SDS011;10205;49.678;6.560;2023-11-21T12:05:38;6.03;;;4.18;;
20090;SDS011;10205;49.678;6.560;2023-11-21T12:08:10;6.22;;;3.58;;
20090;SDS011;10205;49.678;6.560;2023-11-21T12:10:38;4.88;;;3.60;;
20090;SDS011;10205;49.678;6.560;2023-11-21T12:13:06;6.38;;;3.78;;
20090;SDS011;10205;49.678;6.560;2023-11-21T12:15:38;4.78;;;3.20;;
20090;SDS011;10205;49.678;6.560;2023-11-21T12:18:06;5.25;;;3.47;;
20090;SDS011;10205;49.678;6.560;2023-11-21T12:20:34;6.57;;;3.45;;
20090;SDS011;10205;49.678;6.560;2023-11-21T12:23:04;4.45;;;3.55;;
20090;SDS011;10205;49.678;6.560;2023-11-21T12:25:31;4.20;;;3.42;;
20090;SDS011;10205;49.678;6.560;2023-11-21T12:27:59;4.15;;;3.75;;
20090;SDS011;10205;49.678;6.560;2023-11-21T12:30:28;4.60;;;3.08;;
20090;SDS011;10205;49.678;6.560;2023-11-21T12:32:59;4.13;;;3.42;;
20090;SDS011;10205;49.678;6.560;2023-11-21T12:35:27;5.55;;;3.55;;
20090;SDS011;10205;49.678;6.560;2023-11-21T12:37:59;4.25;;;3.28;;
20090;SDS011;10205;49.678;6.560;2023-11-21T12:40:28;3.88;;;2.72;;
20090;SDS011;10205;49.678;6.560;2023-11-21T12:42:56;5.70;;;3.38;;
20090;SDS011;10205;49.678;6.560;2023-11-21T12:45:26;5.80;;;3.60;;
20090;SDS011;10205;49.678;6.560;2023-11-21T12:47:54;4.28;;;3.08;;
20090;SDS011;10205;49.678;6.560;2023-11-21T12:50:27;4.00;;;3.10;;
20090;SDS011;10205;49.678;6.560;2023-11-21T12:52:58;6.60;;;3.50;;
20090;SDS011;10205;49.678;6.560;2023-11-21T12:55:29;7.40;;;3.58;;
20090;SDS011;10205;49.678;6.560;2023-11-21T12:57:59;3.10;;;2.65;;
20090;SDS011;10205;49.678;6.560;2023-11-21T13:00:34;3.50;;;2.78;;
20090;SDS011;10205;49.678;6.560;2023-11-21T13:03:03;4.07;;;3.30;;
20090;SDS011;10205;49.678;6.560;2023-11-21T13:05:35;3.75;;;2.92;;
20090;SDS011;10205;49.678;6.560;2023-11-21T13:08:05;5.43;;;3.50;;
20090;SDS011;10205;49.678;6.560;2023-11-21T13:10:35;4.57;;;3.00;;
20090;SDS011;10205;49.678;6.560;2023-11-21T13:13:07;6.95;;;3.30;;
20090;SDS011;10205;49.678;6.560;2023-11-21T13:15:46;5.40;;;3.33;;
20090;SDS011;10205;49.678;6.560;2023-11-21T13:18:15;4.30;;;3.90;;
20090;SDS011;10205;49.678;6.560;2023-11-21T13:20:44;3.55;;;2.85;;
20090;SDS011;10205;49.678;6.560;2023-11-21T13:23:14;5.28;;;3.53;;
20090;SDS011;10205;49.678;6.560;2023-11-21T13:25:42;3.28;;;2.75;;
20090;SDS011;10205;49.678;6.560;2023-11-21T13:28:10;4.53;;;3.38;;
20090;SDS011;10205;49.678;6.560;2023-11-21T13:30:40;5.00;;;2.63;;
20090;SDS011;10205;49.678;6.560;2023-11-21T13:33:09;2.90;;;2.60;;
20090;SDS011;10205;49.678;6.560;2023-11-21T13:35:44;4.57;;;2.47;;
20090;SDS011;10205;49.678;6.560;2023-11-21T13:38:15;3.58;;;2.78;;
20090;SDS011;10205;49.678;6.560;2023-11-21T13:40:46;3.58;;;2.78;;
20090;SDS011;10205;49.678;6.560;2023-11-21T13:43:18;4.07;;;2.75;;
20090;SDS011;10205;49.678;6.560;2023-11-21T13:45:50;4.03;;;2.83;;
20090;SDS011;10205;49.678;6.560;2023-11-21T13:48:25;3.67;;;2.95;;
20090;SDS011;10205;49.678;6.560;2023-11-21T13:51:01;3.60;;;2.50;;
20090;SDS011;10205;49.678;6.560;2023-11-21T13:53:38;2.35;;;2.15;;
20090;SDS011;10205;49.678;6.560;2023-11-21T13:56:06;5.30;;;2.50;;
20090;SDS011;10205;49.678;6.560;2023-11-21T13:58:35;3.05;;;2.25;;
20090;SDS011;10205;49.678;6.560;2023-11-21T14:01:10;3.35;;;2.45;;
20090;SDS011;10205;49.678;6.560;2023-11-21T14:03:54;4.00;;;2.58;;
20090;SDS011;10205;49.678;6.560;2023-11-21T14:06:28;3.85;;;2.40;;
20090;SDS011;10205;49.678;6.560;2023-11-21T14:08:59;2.38;;;2.15;;
20090;SDS011;10205;49.678;6.560;2023-11-21T14:11:30;4.13;;;2.40;;
20090;SDS011;10205;49.678;6.560;2023-11-21T14:14:00;3.65;;;2.90;;
20090;SDS011;10205;49.678;6.560;2023-11-21T14:16:27;3.03;;;2.60;;
20090;SDS011;10205;49.678;6.560;2023-11-21T14:18:54;3.20;;;2.40;;
20090;SDS011;10205;49.678;6.560;2023-11-21T14:21:28;3.22;;;2.70;;
20090;SDS011;10205;49.678;6.560;2023-11-21T14:23:55;3.70;;;2.70;;
20090;SDS011;10205;49.678;6.560;2023-11-21T14:26:23;3.03;;;2.40;;
20090;SDS011;10205;49.678;6.560;2023-11-21T14:28:50;3.35;;;2.92;;
20090;SDS011;10205;49.678;6.560;2023-11-21T14:31:19;4.28;;;3.08;;
20090;SDS011;10205;49.678;6.560;2023-11-21T14:33:47;3.15;;;2.38;;
20090;SDS011;10205;49.678;6.560;2023-11-21T14:36:14;4.50;;;2.20;;
20090;SDS011;10205;49.678;6.560;2023-11-21T14:38:43;2.83;;;2.53;;
20090;SDS011;10205;49.678;6.560;2023-11-21T14:41:10;3.40;;;2.40;;
20090;SDS011;10205;49.678;6.560;2023-11-21T14:43:39;3.80;;;2.30;;
20090;SDS011;10205;49.678;6.560;2023-11-21T14:46:06;4.72;;;2.95;;
20090;SDS011;10205;49.678;6.560;2023-11-21T14:48:37;2.72;;;2.33;;
20090;SDS011;10205;49.678;6.560;2023-11-21T14:51:07;4.15;;;2.50;;
20090;SDS011;10205;49.678;6.560;2023-11-21T14:53:57;2.92;;;2.40;;
20090;SDS011;10205;49.678;6.560;2023-11-21T14:56:31;2.90;;;2.60;;
20090;SDS011;10205;49.678;6.560;2023-11-21T14:58:59;3.00;;;2.28;;